Search for airport 
image banner adimage banner ad
image banner ad

ESND - Sveg

Located in Sveg, Sweden

ICAO - ESND, IATA - EVG

Data provided by Airmate  

General information

Coordinates: N62°2'52" E14°25'27"
Elevation is 1178 feet MSL.
Magnetic variation is +4.0° East
Rated:
View ratings: [VIEW]


View others Airports in Jämtlande län

Operational data

Open for public use
Current time UTC:
Current local time:
Weather
METAR: ESND 070120Z AUTO 09002KT //// R09///// // NCD 12/12 Q1024
View NOTAMs / SUP AIP / TFR affecting this airport [VIEW]
Communications frequencies: [VIEW]

Runways:

RWY identifierQFULength (ft)Width (ft)SurfaceLDA (ft)
0987°558498ASPH5584
27267°558498ASPH5584

Airport contact information

Address: Sveg Sweden

Other aviation service providers

Aviation club (not for profit)

Svegs Flygklubb

Svegs Flygklubb

Satellite view of ESND